sensor_id;sensor_type;location;lat;lon;timestamp;temperature;humidity
18361;SHT31;9308;48.550;9.108;2023-08-21T00:00:50;26.07;67.07
18361;SHT31;9308;48.550;9.108;2023-08-21T00:03:15;26.08;67.10
18361;SHT31;9308;48.550;9.108;2023-08-21T00:05:41;26.21;66.61
18361;SHT31;9308;48.550;9.108;2023-08-21T00:08:06;26.01;67.14
18361;SHT31;9308;48.550;9.108;2023-08-21T00:10:31;25.97;67.22
18361;SHT31;9308;48.550;9.108;2023-08-21T00:12:58;25.87;67.95
18361;SHT31;9308;48.550;9.108;2023-08-21T00:15:23;25.96;67.61
18361;SHT31;9308;48.550;9.108;2023-08-21T00:17:48;25.70;68.27
18361;SHT31;9308;48.550;9.108;2023-08-21T00:20:14;25.74;68.16
18361;SHT31;9308;48.550;9.108;2023-08-21T00:22:39;25.71;68.20
18361;SHT31;9308;48.550;9.108;2023-08-21T00:25:05;25.73;68.05
18361;SHT31;9308;48.550;9.108;2023-08-21T00:27:30;25.65;68.15
18361;SHT31;9308;48.550;9.108;2023-08-21T00:29:55;25.70;68.17
18361;SHT31;9308;48.550;9.108;2023-08-21T00:32:21;25.80;67.85
18361;SHT31;9308;48.550;9.108;2023-08-21T00:34:46;25.66;68.47
18361;SHT31;9308;48.550;9.108;2023-08-21T00:37:11;25.60;68.58
18361;SHT31;9308;48.550;9.108;2023-08-21T00:39:37;25.71;68.00
18361;SHT31;9308;48.550;9.108;2023-08-21T00:42:02;25.73;67.99
18361;SHT31;9308;48.550;9.108;2023-08-21T00:44:27;25.80;67.67
18361;SHT31;9308;48.550;9.108;2023-08-21T00:46:53;25.70;68.13
18361;SHT31;9308;48.550;9.108;2023-08-21T00:49:19;25.67;68.03
18361;SHT31;9308;48.550;9.108;2023-08-21T00:51:45;25.76;67.75
18361;SHT31;9308;48.550;9.108;2023-08-21T00:54:10;25.62;68.58
18361;SHT31;9308;48.550;9.108;2023-08-21T00:56:36;25.69;68.08
18361;SHT31;9308;48.550;9.108;2023-08-21T00:59:01;25.56;68.48
18361;SHT31;9308;48.550;9.108;2023-08-21T01:01:28;25.60;68.22
18361;SHT31;9308;48.550;9.108;2023-08-21T01:03:53;25.55;68.18
18361;SHT31;9308;48.550;9.108;2023-08-21T01:06:19;25.59;68.08
18361;SHT31;9308;48.550;9.108;2023-08-21T01:09:00;25.42;68.53
18361;SHT31;9308;48.550;9.108;2023-08-21T01:11:50;25.21;69.43
18361;SHT31;9308;48.550;9.108;2023-08-21T01:14:28;25.55;68.35
18361;SHT31;9308;48.550;9.108;2023-08-21T01:16:59;25.62;67.94
18361;SHT31;9308;48.550;9.108;2023-08-21T01:19:31;25.42;68.72
18361;SHT31;9308;48.550;9.108;2023-08-21T01:22:00;25.26;68.94
18361;SHT31;9308;48.550;9.108;2023-08-21T01:24:26;25.36;68.58
18361;SHT31;9308;48.550;9.108;2023-08-21T01:26:51;25.10;69.40
18361;SHT31;9308;48.550;9.108;2023-08-21T01:29:16;25.18;69.11
18361;SHT31;9308;48.550;9.108;2023-08-21T01:31:45;25.28;68.71
18361;SHT31;9308;48.550;9.108;2023-08-21T01:34:13;25.32;68.61
18361;SHT31;9308;48.550;9.108;2023-08-21T01:36:39;25.28;68.82
18361;SHT31;9308;48.550;9.108;2023-08-21T01:39:05;25.18;69.17
18361;SHT31;9308;48.550;9.108;2023-08-21T01:41:31;25.16;69.11
18361;SHT31;9308;48.550;9.108;2023-08-21T01:43:56;25.21;68.62
18361;SHT31;9308;48.550;9.108;2023-08-21T01:46:21;25.19;69.11
18361;SHT31;9308;48.550;9.108;2023-08-21T01:48:47;24.78;70.21
18361;SHT31;9308;48.550;9.108;2023-08-21T01:51:12;25.07;69.30
18361;SHT31;9308;48.550;9.108;2023-08-21T01:53:37;24.94;69.47
18361;SHT31;9308;48.550;9.108;2023-08-21T01:56:03;25.01;69.36
18361;SHT31;9308;48.550;9.108;2023-08-21T01:58:28;25.19;68.64
18361;SHT31;9308;48.550;9.108;2023-08-21T02:00:53;25.16;68.49
18361;SHT31;9308;48.550;9.108;2023-08-21T02:03:18;25.26;68.21
18361;SHT31;9308;48.550;9.108;2023-08-21T02:05:44;25.08;68.87
18361;SHT31;9308;48.550;9.108;2023-08-21T02:08:13;25.03;68.89
18361;SHT31;9308;48.550;9.108;2023-08-21T02:10:49;24.93;69.49
18361;SHT31;9308;48.550;9.108;2023-08-21T02:13:15;24.74;69.70
18361;SHT31;9308;48.550;9.108;2023-08-21T02:15:40;24.93;69.07
18361;SHT31;9308;48.550;9.108;2023-08-21T02:18:05;24.76;69.77
18361;SHT31;9308;48.550;9.108;2023-08-21T02:20:31;24.86;69.24
18361;SHT31;9308;48.550;9.108;2023-08-21T02:22:56;24.94;68.76
18361;SHT31;9308;48.550;9.108;2023-08-21T02:25:21;24.91;68.82
18361;SHT31;9308;48.550;9.108;2023-08-21T02:27:47;24.70;69.83
18361;SHT31;9308;48.550;9.108;2023-08-21T02:30:12;24.80;69.50
18361;SHT31;9308;48.550;9.108;2023-08-21T02:32:37;24.69;69.74
18361;SHT31;9308;48.550;9.108;2023-08-21T02:35:05;24.69;69.70
18361;SHT31;9308;48.550;9.108;2023-08-21T02:37:31;24.81;69.34
18361;SHT31;9308;48.550;9.108;2023-08-21T02:39:56;24.55;70.48
18361;SHT31;9308;48.550;9.108;2023-08-21T02:42:21;24.45;70.27
18361;SHT31;9308;48.550;9.108;2023-08-21T02:44:47;24.38;70.63
18361;SHT31;9308;48.550;9.108;2023-08-21T02:47:12;24.45;70.27
18361;SHT31;9308;48.550;9.108;2023-08-21T02:49:37;24.55;69.82
18361;SHT31;9308;48.550;9.108;2023-08-21T02:52:03;24.64;69.53
18361;SHT31;9308;48.550;9.108;2023-08-21T02:54:28;24.77;69.05
18361;SHT31;9308;48.550;9.108;2023-08-21T02:56:53;24.66;69.27
18361;SHT31;9308;48.550;9.108;2023-08-21T02:59:19;24.67;69.30
18361;SHT31;9308;48.550;9.108;2023-08-21T03:01:44;24.52;69.67
18361;SHT31;9308;48.550;9.108;2023-08-21T03:04:09;24.31;70.20
18361;SHT31;9308;48.550;9.108;2023-08-21T03:06:34;24.39;70.20
18361;SHT31;9308;48.550;9.108;2023-08-21T03:09:00;24.61;69.19
18361;SHT31;9308;48.550;9.108;2023-08-21T03:11:25;24.56;69.34
18361;SHT31;9308;48.550;9.108;2023-08-21T03:13:50;24.38;70.16
18361;SHT31;9308;48.550;9.108;2023-08-21T03:16:16;24.21;70.97
18361;SHT31;9308;48.550;9.108;2023-08-21T03:18:55;24.36;70.23
18361;SHT31;9308;48.550;9.108;2023-08-21T03:21:22;24.18;71.05
18361;SHT31;9308;48.550;9.108;2023-08-21T03:23:54;24.33;70.38
18361;SHT31;9308;48.550;9.108;2023-08-21T03:26:19;24.35;70.10
18361;SHT31;9308;48.550;9.108;2023-08-21T03:28:45;24.29;70.36
18361;SHT31;9308;48.550;9.108;2023-08-21T03:31:10;24.38;70.04
18361;SHT31;9308;48.550;9.108;2023-08-21T03:33:35;24.21;70.75
18361;SHT31;9308;48.550;9.108;2023-08-21T03:36:01;24.12;70.92
18361;SHT31;9308;48.550;9.108;2023-08-21T03:38:26;24.29;70.29
18361;SHT31;9308;48.550;9.108;2023-08-21T03:40:51;24.15;70.84
18361;SHT31;9308;48.550;9.108;2023-08-21T03:43:17;24.23;70.56
18361;SHT31;9308;48.550;9.108;2023-08-21T03:45:42;24.26;70.25
18361;SHT31;9308;48.550;9.108;2023-08-21T03:48:07;24.35;69.98
18361;SHT31;9308;48.550;9.108;2023-08-21T03:50:33;24.16;70.32
18361;SHT31;9308;48.550;9.108;2023-08-21T03:52:58;24.04;70.73
18361;SHT31;9308;48.550;9.108;2023-08-21T03:55:24;24.09;70.81
18361;SHT31;9308;48.550;9.108;2023-08-21T03:57:49;24.16;70.39
18361;SHT31;9308;48.550;9.108;2023-08-21T04:00:14;24.18;70.41
18361;SHT31;9308;48.550;9.108;2023-08-21T04:02:40;24.19;70.29
18361;SHT31;9308;48.550;9.108;2023-08-21T04:05:06;24.02;70.69
18361;SHT31;9308;48.550;9.108;2023-08-21T04:07:31;24.25;69.92
18361;SHT31;9308;48.550;9.108;2023-08-21T04:09:57;24.04;70.31
18361;SHT31;9308;48.550;9.108;2023-08-21T04:12:22;24.04;70.75
18361;SHT31;9308;48.550;9.108;2023-08-21T04:14:47;24.01;70.39
18361;SHT31;9308;48.550;9.108;2023-08-21T04:17:12;24.13;70.05
18361;SHT31;9308;48.550;9.108;2023-08-21T04:19:38;23.93;70.83
18361;SHT31;9308;48.550;9.108;2023-08-21T04:22:06;23.74;71.26
18361;SHT31;9308;48.550;9.108;2023-08-21T04:24:31;23.85;70.69
18361;SHT31;9308;48.550;9.108;2023-08-21T04:26:56;24.05;69.74
18361;SHT31;9308;48.550;9.108;2023-08-21T04:29:22;23.85;70.63
18361;SHT31;9308;48.550;9.108;2023-08-21T04:31:48;23.94;70.23
18361;SHT31;9308;48.550;9.108;2023-08-21T04:34:13;24.11;69.63
18361;SHT31;9308;48.550;9.108;2023-08-21T04:36:38;23.84;70.69
18361;SHT31;9308;48.550;9.108;2023-08-21T04:39:04;23.95;70.23
18361;SHT31;9308;48.550;9.108;2023-08-21T04:41:29;24.09;69.83
18361;SHT31;9308;48.550;9.108;2023-08-21T04:43:54;23.97;70.28
18361;SHT31;9308;48.550;9.108;2023-08-21T04:46:20;24.11;69.76
18361;SHT31;9308;48.550;9.108;2023-08-21T04:48:46;24.11;69.85
18361;SHT31;9308;48.550;9.108;2023-08-21T04:51:11;24.04;70.34
18361;SHT31;9308;48.550;9.108;2023-08-21T04:53:37;24.16;69.97
18361;SHT31;9308;48.550;9.108;2023-08-21T04:56:02;24.09;70.34
18361;SHT31;9308;48.550;9.108;2023-08-21T04:58:28;24.00;70.66
18361;SHT31;9308;48.550;9.108;2023-08-21T05:00:54;23.85;71.23
18361;SHT31;9308;48.550;9.108;2023-08-21T05:03:19;23.97;71.09
18361;SHT31;9308;48.550;9.108;2023-08-21T05:05:55;24.05;70.73
18361;SHT31;9308;48.550;9.108;2023-08-21T05:08:24;24.19;70.37
18361;SHT31;9308;48.550;9.108;2023-08-21T05:10:57;24.22;70.39
18361;SHT31;9308;48.550;9.108;2023-08-21T05:13:23;23.95;71.43
18361;SHT31;9308;48.550;9.108;2023-08-21T05:15:52;24.11;70.97
18361;SHT31;9308;48.550;9.108;2023-08-21T05:18:18;24.18;70.80
18361;SHT31;9308;48.550;9.108;2023-08-21T05:20:44;24.11;71.37
18361;SHT31;9308;48.550;9.108;2023-08-21T05:23:09;24.39;70.81
18361;SHT31;9308;48.550;9.108;2023-08-21T05:25:34;24.40;71.08
18361;SHT31;9308;48.550;9.108;2023-08-21T05:28:00;24.49;70.98
18361;SHT31;9308;48.550;9.108;2023-08-21T05:30:25;24.61;70.26
18361;SHT31;9308;48.550;9.108;2023-08-21T05:32:51;24.63;70.57
18361;SHT31;9308;48.550;9.108;2023-08-21T05:35:16;24.73;70.59
18361;SHT31;9308;48.550;9.108;2023-08-21T05:37:42;24.74;70.57
18361;SHT31;9308;48.550;9.108;2023-08-21T05:40:07;24.60;71.04
18361;SHT31;9308;48.550;9.108;2023-08-21T05:42:33;24.80;70.64
18361;SHT31;9308;48.550;9.108;2023-08-21T05:44:58;24.73;71.05
18361;SHT31;9308;48.550;9.108;2023-08-21T05:47:23;24.87;70.75
18361;SHT31;9308;48.550;9.108;2023-08-21T05:49:50;24.78;71.54
18361;SHT31;9308;48.550;9.108;2023-08-21T05:52:15;24.87;70.99
18361;SHT31;9308;48.550;9.108;2023-08-21T05:54:40;24.93;70.99
18361;SHT31;9308;48.550;9.108;2023-08-21T05:57:05;25.01;70.80
18361;SHT31;9308;48.550;9.108;2023-08-21T05:59:32;25.00;70.79
18361;SHT31;9308;48.550;9.108;2023-08-21T06:01:58;25.15;69.97
18361;SHT31;9308;48.550;9.108;2023-08-21T06:04:24;25.21;70.02
18361;SHT31;9308;48.550;9.108;2023-08-21T06:06:49;25.26;70.06
18361;SHT31;9308;48.550;9.108;2023-08-21T06:09:15;25.19;70.28
18361;SHT31;9308;48.550;9.108;2023-08-21T06:11:42;25.62;69.12
18361;SHT31;9308;48.550;9.108;2023-08-21T06:14:07;25.62;69.34
18361;SHT31;9308;48.550;9.108;2023-08-21T06:16:33;25.50;69.88
18361;SHT31;9308;48.550;9.108;2023-08-21T06:18:58;25.33;70.40
18361;SHT31;9308;48.550;9.108;2023-08-21T06:21:23;25.60;69.46
18361;SHT31;9308;48.550;9.108;2023-08-21T06:23:49;25.52;69.94
18361;SHT31;9308;48.550;9.108;2023-08-21T06:26:14;25.76;69.16
18361;SHT31;9308;48.550;9.108;2023-08-21T06:28:39;25.71;69.75
18361;SHT31;9308;48.550;9.108;2023-08-21T06:31:05;25.71;69.53
18361;SHT31;9308;48.550;9.108;2023-08-21T06:33:33;25.66;69.50
18361;SHT31;9308;48.550;9.108;2023-08-21T06:35:58;25.81;68.97
18361;SHT31;9308;48.550;9.108;2023-08-21T06:38:24;25.94;68.88
18361;SHT31;9308;48.550;9.108;2023-08-21T06:40:49;26.05;68.74
18361;SHT31;9308;48.550;9.108;2023-08-21T06:43:16;25.93;69.33
18361;SHT31;9308;48.550;9.108;2023-08-21T06:45:42;25.93;69.21
18361;SHT31;9308;48.550;9.108;2023-08-21T06:48:07;26.08;68.91
18361;SHT31;9308;48.550;9.108;2023-08-21T06:50:33;26.36;68.11
18361;SHT31;9308;48.550;9.108;2023-08-21T06:52:58;26.41;68.44
18361;SHT31;9308;48.550;9.108;2023-08-21T06:55:23;26.05;68.56
18361;SHT31;9308;48.550;9.108;2023-08-21T06:57:49;26.46;67.21
18361;SHT31;9308;48.550;9.108;2023-08-21T07:00:15;26.53;67.24
18361;SHT31;9308;48.550;9.108;2023-08-21T07:02:40;26.51;67.34
18361;SHT31;9308;48.550;9.108;2023-08-21T07:05:06;26.48;67.77
18361;SHT31;9308;48.550;9.108;2023-08-21T07:07:33;26.79;66.75
18361;SHT31;9308;48.550;9.108;2023-08-21T07:09:58;26.99;66.93
18361;SHT31;9308;48.550;9.108;2023-08-21T07:12:23;26.87;66.59
18361;SHT31;9308;48.550;9.108;2023-08-21T07:14:49;26.94;66.55
18361;SHT31;9308;48.550;9.108;2023-08-21T07:17:14;27.20;65.96
18361;SHT31;9308;48.550;9.108;2023-08-21T07:19:39;27.17;66.10
18361;SHT31;9308;48.550;9.108;2023-08-21T07:22:05;27.14;65.75
18361;SHT31;9308;48.550;9.108;2023-08-21T07:24:30;27.17;65.50
18361;SHT31;9308;48.550;9.108;2023-08-21T07:26:55;27.39;65.08
18361;SHT31;9308;48.550;9.108;2023-08-21T07:29:21;27.61;65.32
18361;SHT31;9308;48.550;9.108;2023-08-21T07:31:46;27.72;64.45
18361;SHT31;9308;48.550;9.108;2023-08-21T07:34:11;27.70;64.62
18361;SHT31;9308;48.550;9.108;2023-08-21T07:36:37;27.69;64.14
18361;SHT31;9308;48.550;9.108;2023-08-21T07:39:03;27.87;63.99
18361;SHT31;9308;48.550;9.108;2023-08-21T07:41:28;28.09;63.71
18361;SHT31;9308;48.550;9.108;2023-08-21T07:43:54;28.31;62.99
18361;SHT31;9308;48.550;9.108;2023-08-21T07:46:19;28.04;63.14
18361;SHT31;9308;48.550;9.108;2023-08-21T07:48:45;28.21;63.39
18361;SHT31;9308;48.550;9.108;2023-08-21T07:51:11;28.44;62.80
18361;SHT31;9308;48.550;9.108;2023-08-21T07:53:36;28.25;62.57
18361;SHT31;9308;48.550;9.108;2023-08-21T07:56:03;28.64;62.39
18361;SHT31;9308;48.550;9.108;2023-08-21T07:58:32;28.82;62.85
18361;SHT31;9308;48.550;9.108;2023-08-21T08:00:58;28.76;60.90
18361;SHT31;9308;48.550;9.108;2023-08-21T08:03:24;29.04;61.21
18361;SHT31;9308;48.550;9.108;2023-08-21T08:05:49;29.00;61.08
18361;SHT31;9308;48.550;9.108;2023-08-21T08:08:16;28.76;61.33
18361;SHT31;9308;48.550;9.108;2023-08-21T08:10:42;29.20;60.77
18361;SHT31;9308;48.550;9.108;2023-08-21T08:13:08;29.26;61.59
18361;SHT31;9308;48.550;9.108;2023-08-21T08:15:34;29.35;60.98
18361;SHT31;9308;48.550;9.108;2023-08-21T08:18:03;29.47;59.99
18361;SHT31;9308;48.550;9.108;2023-08-21T08:20:29;29.44;60.74
18361;SHT31;9308;48.550;9.108;2023-08-21T08:22:55;29.88;60.39
18361;SHT31;9308;48.550;9.108;2023-08-21T08:25:21;29.85;59.01
18361;SHT31;9308;48.550;9.108;2023-08-21T08:27:46;30.28;59.19
18361;SHT31;9308;48.550;9.108;2023-08-21T08:30:12;29.75;58.86
18361;SHT31;9308;48.550;9.108;2023-08-21T08:32:38;30.31;58.32
18361;SHT31;9308;48.550;9.108;2023-08-21T08:35:05;30.44;57.53
18361;SHT31;9308;48.550;9.108;2023-08-21T08:37:30;30.26;57.89
18361;SHT31;9308;48.550;9.108;2023-08-21T08:39:56;30.36;57.83
18361;SHT31;9308;48.550;9.108;2023-08-21T08:42:21;30.40;58.25
18361;SHT31;9308;48.550;9.108;2023-08-21T08:44:47;30.64;59.19
18361;SHT31;9308;48.550;9.108;2023-08-21T08:47:13;30.86;58.16
18361;SHT31;9308;48.550;9.108;2023-08-21T08:49:39;30.64;56.95
18361;SHT31;9308;48.550;9.108;2023-08-21T08:52:05;30.75;58.16
18361;SHT31;9308;48.550;9.108;2023-08-21T08:54:31;31.27;57.23
18361;SHT31;9308;48.550;9.108;2023-08-21T08:56:57;31.40;57.34
18361;SHT31;9308;48.550;9.108;2023-08-21T08:59:22;31.51;57.75
18361;SHT31;9308;48.550;9.108;2023-08-21T09:01:48;31.86;58.06
18361;SHT31;9308;48.550;9.108;2023-08-21T09:04:13;31.60;56.65
18361;SHT31;9308;48.550;9.108;2023-08-21T09:06:39;31.78;57.03
18361;SHT31;9308;48.550;9.108;2023-08-21T09:09:05;32.08;56.93
18361;SHT31;9308;48.550;9.108;2023-08-21T09:11:32;32.11;58.54
18361;SHT31;9308;48.550;9.108;2023-08-21T09:13:58;32.02;57.68
18361;SHT31;9308;48.550;9.108;2023-08-21T09:16:24;32.01;56.48
18361;SHT31;9308;48.550;9.108;2023-08-21T09:18:53;31.95;55.58
18361;SHT31;9308;48.550;9.108;2023-08-21T09:21:20;32.29;56.43
18361;SHT31;9308;48.550;9.108;2023-08-21T09:23:46;32.53;55.09
18361;SHT31;9308;48.550;9.108;2023-08-21T09:26:18;32.71;56.06
18361;SHT31;9308;48.550;9.108;2023-08-21T09:28:45;32.84;55.88
18361;SHT31;9308;48.550;9.108;2023-08-21T09:31:11;32.64;54.57
18361;SHT31;9308;48.550;9.108;2023-08-21T09:33:36;32.76;56.01
18361;SHT31;9308;48.550;9.108;2023-08-21T09:36:03;33.00;51.57
18361;SHT31;9308;48.550;9.108;2023-08-21T09:38:30;32.87;51.88
18361;SHT31;9308;48.550;9.108;2023-08-21T09:40:55;33.05;52.32
18361;SHT31;9308;48.550;9.108;2023-08-21T09:43:22;33.01;54.57
18361;SHT31;9308;48.550;9.108;2023-08-21T09:45:50;33.21;53.75
18361;SHT31;9308;48.550;9.108;2023-08-21T09:48:25;33.11;51.38
18361;SHT31;9308;48.550;9.108;2023-08-21T09:50:55;33.12;50.40
18361;SHT31;9308;48.550;9.108;2023-08-21T09:53:21;33.03;51.93
18361;SHT31;9308;48.550;9.108;2023-08-21T09:55:53;33.51;51.54
18361;SHT31;9308;48.550;9.108;2023-08-21T09:58:20;33.69;49.00
18361;SHT31;9308;48.550;9.108;2023-08-21T10:00:48;33.68;49.42
18361;SHT31;9308;48.550;9.108;2023-08-21T10:03:18;33.74;49.35
18361;SHT31;9308;48.550;9.108;2023-08-21T10:05:44;33.65;51.40
18361;SHT31;9308;48.550;9.108;2023-08-21T10:08:10;33.90;48.47
18361;SHT31;9308;48.550;9.108;2023-08-21T10:10:37;33.79;51.08
18361;SHT31;9308;48.550;9.108;2023-08-21T10:13:03;34.08;49.51
18361;SHT31;9308;48.550;9.108;2023-08-21T10:15:30;34.07;49.96
18361;SHT31;9308;48.550;9.108;2023-08-21T10:17:56;34.78;46.97
18361;SHT31;9308;48.550;9.108;2023-08-21T10:20:25;34.71;48.87
18361;SHT31;9308;48.550;9.108;2023-08-21T10:22:56;34.40;48.99
18361;SHT31;9308;48.550;9.108;2023-08-21T10:25:25;34.52;49.10
18361;SHT31;9308;48.550;9.108;2023-08-21T10:27:56;34.17;47.49
18361;SHT31;9308;48.550;9.108;2023-08-21T10:30:27;34.31;47.95
18361;SHT31;9308;48.550;9.108;2023-08-21T10:32:54;34.37;49.02
18361;SHT31;9308;48.550;9.108;2023-08-21T10:35:22;34.38;49.04
18361;SHT31;9308;48.550;9.108;2023-08-21T10:40:32;34.45;48.45
18361;SHT31;9308;48.550;9.108;2023-08-21T10:42:59;34.61;46.84
18361;SHT31;9308;48.550;9.108;2023-08-21T10:45:24;34.17;46.81
18361;SHT31;9308;48.550;9.108;2023-08-21T10:47:49;34.44;48.50
18361;SHT31;9308;48.550;9.108;2023-08-21T10:50:16;34.15;48.66
18361;SHT31;9308;48.550;9.108;2023-08-21T10:52:42;34.35;48.73
18361;SHT31;9308;48.550;9.108;2023-08-21T10:55:11;34.62;48.21
18361;SHT31;9308;48.550;9.108;2023-08-21T10:57:37;34.88;47.44
18361;SHT31;9308;48.550;9.108;2023-08-21T11:00:04;34.72;48.66
18361;SHT31;9308;48.550;9.108;2023-08-21T11:02:30;34.75;46.52
18361;SHT31;9308;48.550;9.108;2023-08-21T11:04:58;34.20;45.85
18361;SHT31;9308;48.550;9.108;2023-08-21T11:07:24;34.33;46.52
18361;SHT31;9308;48.550;9.108;2023-08-21T11:09:50;34.52;47.67
18361;SHT31;9308;48.550;9.108;2023-08-21T11:12:17;34.69;46.09
18361;SHT31;9308;48.550;9.108;2023-08-21T11:14:43;34.51;46.62
18361;SHT31;9308;48.550;9.108;2023-08-21T11:17:09;34.35;46.00
18361;SHT31;9308;48.550;9.108;2023-08-21T11:19:36;34.76;47.06
18361;SHT31;9308;48.550;9.108;2023-08-21T11:22:03;34.73;46.35
18361;SHT31;9308;48.550;9.108;2023-08-21T11:24:46;34.85;44.50
18361;SHT31;9308;48.550;9.108;2023-08-21T11:27:14;34.97;46.42
18361;SHT31;9308;48.550;9.108;2023-08-21T11:29:44;35.23;45.28
18361;SHT31;9308;48.550;9.108;2023-08-21T11:32:12;35.27;45.39
18361;SHT31;9308;48.550;9.108;2023-08-21T11:34:37;35.09;45.48
18361;SHT31;9308;48.550;9.108;2023-08-21T11:37:04;35.37;46.30
18361;SHT31;9308;48.550;9.108;2023-08-21T11:39:49;35.40;45.28
18361;SHT31;9308;48.550;9.108;2023-08-21T11:42:15;35.45;45.67
18361;SHT31;9308;48.550;9.108;2023-08-21T11:44:42;35.70;45.16
18361;SHT31;9308;48.550;9.108;2023-08-21T11:47:08;35.04;44.37
18361;SHT31;9308;48.550;9.108;2023-08-21T11:49:36;34.48;45.95
18361;SHT31;9308;48.550;9.108;2023-08-21T11:52:02;34.83;46.57
18361;SHT31;9308;48.550;9.108;2023-08-21T11:54:35;35.29;47.59
18361;SHT31;9308;48.550;9.108;2023-08-21T11:57:04;35.43;47.41
18361;SHT31;9308;48.550;9.108;2023-08-21T11:59:30;35.20;45.32
18361;SHT31;9308;48.550;9.108;2023-08-21T12:01:55;35.30;47.29
18361;SHT31;9308;48.550;9.108;2023-08-21T12:04:21;35.58;45.72
18361;SHT31;9308;48.550;9.108;2023-08-21T12:06:46;35.37;44.75
18361;SHT31;9308;48.550;9.108;2023-08-21T12:09:12;35.14;43.93
18361;SHT31;9308;48.550;9.108;2023-08-21T12:11:37;35.45;44.53
18361;SHT31;9308;48.550;9.108;2023-08-21T12:14:04;35.45;45.30
18361;SHT31;9308;48.550;9.108;2023-08-21T12:16:29;35.59;44.83
18361;SHT31;9308;48.550;9.108;2023-08-21T12:18:54;35.78;45.24
18361;SHT31;9308;48.550;9.108;2023-08-21T12:21:25;35.59;42.45
18361;SHT31;9308;48.550;9.108;2023-08-21T12:23:50;35.57;44.24
18361;SHT31;9308;48.550;9.108;2023-08-21T12:26:16;35.55;44.51
18361;SHT31;9308;48.550;9.108;2023-08-21T12:28:48;35.34;44.81
18361;SHT31;9308;48.550;9.108;2023-08-21T12:31:14;35.40;44.59
18361;SHT31;9308;48.550;9.108;2023-08-21T12:33:39;35.50;44.00
18361;SHT31;9308;48.550;9.108;2023-08-21T12:36:06;35.21;44.40
18361;SHT31;9308;48.550;9.108;2023-08-21T12:38:31;35.51;46.92
18361;SHT31;9308;48.550;9.108;2023-08-21T12:40:57;35.53;46.13
18361;SHT31;9308;48.550;9.108;2023-08-21T12:43:23;35.55;46.29
18361;SHT31;9308;48.550;9.108;2023-08-21T12:45:48;35.58;44.98
18361;SHT31;9308;48.550;9.108;2023-08-21T12:48:14;35.24;43.95
18361;SHT31;9308;48.550;9.108;2023-08-21T12:50:39;35.33;44.33
18361;SHT31;9308;48.550;9.108;2023-08-21T12:53:05;35.37;43.75
18361;SHT31;9308;48.550;9.108;2023-08-21T12:55:30;35.10;42.97
18361;SHT31;9308;48.550;9.108;2023-08-21T12:57:56;35.14;46.07
18361;SHT31;9308;48.550;9.108;2023-08-21T13:00:21;35.16;46.27
18361;SHT31;9308;48.550;9.108;2023-08-21T13:02:47;35.26;44.27
18361;SHT31;9308;48.550;9.108;2023-08-21T13:05:12;35.55;45.10
18361;SHT31;9308;48.550;9.108;2023-08-21T13:07:37;35.13;43.84
18361;SHT31;9308;48.550;9.108;2023-08-21T13:10:03;35.03;44.12
18361;SHT31;9308;48.550;9.108;2023-08-21T13:12:28;35.35;45.55
18361;SHT31;9308;48.550;9.108;2023-08-21T13:14:54;35.50;43.59
18361;SHT31;9308;48.550;9.108;2023-08-21T13:17:19;35.40;44.72
18361;SHT31;9308;48.550;9.108;2023-08-21T13:19:44;35.38;44.30
18361;SHT31;9308;48.550;9.108;2023-08-21T13:22:10;35.02;43.13
18361;SHT31;9308;48.550;9.108;2023-08-21T13:24:35;35.14;44.97
18361;SHT31;9308;48.550;9.108;2023-08-21T13:27:00;35.40;46.85
18361;SHT31;9308;48.550;9.108;2023-08-21T13:29:26;35.27;43.65
18361;SHT31;9308;48.550;9.108;2023-08-21T13:31:51;35.58;44.23
18361;SHT31;9308;48.550;9.108;2023-08-21T13:34:16;35.72;44.44
18361;SHT31;9308;48.550;9.108;2023-08-21T13:36:42;35.81;41.66
18361;SHT31;9308;48.550;9.108;2023-08-21T13:39:08;35.41;42.60
18361;SHT31;9308;48.550;9.108;2023-08-21T13:41:35;35.75;44.29
18361;SHT31;9308;48.550;9.108;2023-08-21T13:44:01;36.02;44.97
18361;SHT31;9308;48.550;9.108;2023-08-21T13:46:26;36.23;46.07
18361;SHT31;9308;48.550;9.108;2023-08-21T13:48:51;36.16;44.31
18361;SHT31;9308;48.550;9.108;2023-08-21T13:51:17;36.53;46.93
18361;SHT31;9308;48.550;9.108;2023-08-21T13:53:42;36.30;43.42
18361;SHT31;9308;48.550;9.108;2023-08-21T13:56:07;36.29;45.37
18361;SHT31;9308;48.550;9.108;2023-08-21T13:58:33;36.66;43.68
18361;SHT31;9308;48.550;9.108;2023-08-21T14:00:58;36.48;45.03
18361;SHT31;9308;48.550;9.108;2023-08-21T14:03:24;36.73;43.10
18361;SHT31;9308;48.550;9.108;2023-08-21T14:05:50;36.16;42.69
18361;SHT31;9308;48.550;9.108;2023-08-21T14:08:15;36.50;44.01
18361;SHT31;9308;48.550;9.108;2023-08-21T14:10:40;36.67;42.79
18361;SHT31;9308;48.550;9.108;2023-08-21T14:13:05;36.66;41.18
18361;SHT31;9308;48.550;9.108;2023-08-21T14:15:33;36.48;42.43
18361;SHT31;9308;48.550;9.108;2023-08-21T14:17:58;36.91;40.55
18361;SHT31;9308;48.550;9.108;2023-08-21T14:20:24;36.66;40.21
18361;SHT31;9308;48.550;9.108;2023-08-21T14:22:49;36.74;40.15
18361;SHT31;9308;48.550;9.108;2023-08-21T14:25:14;36.98;43.28
18361;SHT31;9308;48.550;9.108;2023-08-21T14:27:40;36.68;40.25
18361;SHT31;9308;48.550;9.108;2023-08-21T14:30:06;36.98;41.69
18361;SHT31;9308;48.550;9.108;2023-08-21T14:32:32;36.57;43.71
18361;SHT31;9308;48.550;9.108;2023-08-21T14:34:58;36.46;42.62
18361;SHT31;9308;48.550;9.108;2023-08-21T14:37:23;36.36;41.12
18361;SHT31;9308;48.550;9.108;2023-08-21T14:39:49;36.46;41.58
18361;SHT31;9308;48.550;9.108;2023-08-21T14:42:14;36.84;42.69
18361;SHT31;9308;48.550;9.108;2023-08-21T14:44:40;37.19;42.56
18361;SHT31;9308;48.550;9.108;2023-08-21T14:47:05;36.68;40.61
18361;SHT31;9308;48.550;9.108;2023-08-21T14:49:31;36.92;41.41
18361;SHT31;9308;48.550;9.108;2023-08-21T14:51:57;36.51;40.54
18361;SHT31;9308;48.550;9.108;2023-08-21T14:54:22;36.99;42.14
18361;SHT31;9308;48.550;9.108;2023-08-21T14:56:48;36.82;39.44
18361;SHT31;9308;48.550;9.108;2023-08-21T14:59:13;36.81;40.88
18361;SHT31;9308;48.550;9.108;2023-08-21T15:01:40;36.91;41.31
18361;SHT31;9308;48.550;9.108;2023-08-21T15:04:06;36.85;41.05
18361;SHT31;9308;48.550;9.108;2023-08-21T15:06:34;36.77;41.75
18361;SHT31;9308;48.550;9.108;2023-08-21T15:08:59;36.75;41.72
18361;SHT31;9308;48.550;9.108;2023-08-21T15:11:25;36.50;40.23
18361;SHT31;9308;48.550;9.108;2023-08-21T15:13:50;36.61;42.12
18361;SHT31;9308;48.550;9.108;2023-08-21T15:16:15;36.57;40.55
18361;SHT31;9308;48.550;9.108;2023-08-21T15:18:41;36.78;40.67
18361;SHT31;9308;48.550;9.108;2023-08-21T15:21:06;36.60;42.41
18361;SHT31;9308;48.550;9.108;2023-08-21T15:23:31;36.58;41.33
18361;SHT31;9308;48.550;9.108;2023-08-21T15:25:57;36.41;42.60
18361;SHT31;9308;48.550;9.108;2023-08-21T15:28:22;36.68;42.78
18361;SHT31;9308;48.550;9.108;2023-08-21T15:30:47;36.54;44.01
18361;SHT31;9308;48.550;9.108;2023-08-21T15:33:13;36.63;43.22
18361;SHT31;9308;48.550;9.108;2023-08-21T15:35:38;36.33;40.50
18361;SHT31;9308;48.550;9.108;2023-08-21T15:38:03;36.82;42.34
18361;SHT31;9308;48.550;9.108;2023-08-21T15:40:29;37.56;41.05